createdAt,value
2023-04-24T00:02:25.176Z,7.45
2023-04-24T00:04:54.742Z,6.55
2023-04-24T00:07:21.895Z,7.43
2023-04-24T00:09:53.098Z,6.05
2023-04-24T00:12:20.004Z,3.08
2023-04-24T00:14:46.950Z,2.10
2023-04-24T00:17:15.919Z,1.58
2023-04-24T00:19:42.997Z,1.80
2023-04-24T00:24:39.177Z,1.52
2023-04-24T00:27:08.290Z,2.35
2023-04-24T00:29:35.406Z,3.95
2023-04-24T00:32:02.340Z,4.78
2023-04-24T00:34:34.037Z,6.10
2023-04-24T00:37:01.601Z,8.75
2023-04-24T00:39:28.470Z,5.85
2023-04-24T00:41:57.771Z,6.35
2023-04-24T00:44:27.924Z,8.35
2023-04-24T00:46:56.334Z,6.20
2023-04-24T00:49:23.752Z,6.93
2023-04-24T00:51:52.233Z,7.13
2023-04-24T00:54:19.568Z,6.50
2023-04-24T00:56:46.973Z,10.45
2023-04-24T00:59:14.613Z,4.85
2023-04-24T01:01:45.022Z,6.15
2023-04-24T01:04:13.984Z,5.65
2023-04-24T01:06:42.212Z,3.00
2023-04-24T01:09:10.006Z,1.80
2023-04-24T01:11:38.296Z,1.40
2023-04-24T01:14:05.777Z,1.55
2023-04-24T01:16:35.296Z,1.70
2023-04-24T01:19:02.466Z,1.63
2023-04-24T01:21:31.403Z,1.65
2023-04-24T01:23:58.383Z,2.30
2023-04-24T01:26:26.549Z,1.60
2023-04-24T01:28:56.681Z,1.60
2023-04-24T01:31:24.382Z,1.67
2023-04-24T01:33:52.820Z,1.48
2023-04-24T01:36:20.948Z,1.60
2023-04-24T01:38:50.486Z,1.48
2023-04-24T01:41:19.707Z,1.60
2023-04-24T01:43:46.681Z,1.70
2023-04-24T01:46:13.739Z,1.55
2023-04-24T01:48:41.241Z,1.67
2023-04-24T01:51:10.543Z,1.70
2023-04-24T01:53:39.705Z,1.58
2023-04-24T01:56:10.398Z,2.03
2023-04-24T02:01:10.349Z,1.30
2023-04-24T02:03:40.813Z,1.77
2023-04-24T02:06:10.127Z,1.60
2023-04-24T02:08:37.011Z,2.05
2023-04-24T02:11:04.011Z,1.40
2023-04-24T02:13:32.359Z,1.30
2023-04-24T02:16:02.176Z,1.33
2023-04-24T02:18:30.429Z,1.50
2023-04-24T02:20:57.822Z,1.52
2023-04-24T02:23:28.153Z,1.40
2023-04-24T02:25:55.143Z,1.58
2023-04-24T02:28:24.094Z,1.60
2023-04-24T02:30:51.638Z,1.38
2023-04-24T02:35:46.570Z,1.48
2023-04-24T02:38:13.511Z,1.45
2023-04-24T02:40:42.532Z,1.52
2023-04-24T02:43:10.745Z,1.42
2023-04-24T02:45:40.223Z,1.65
2023-04-24T02:48:09.684Z,1.60
2023-04-24T02:50:36.812Z,2.10
2023-04-24T02:53:04.085Z,1.63
2023-04-24T02:55:33.513Z,1.70
2023-04-24T02:58:03.110Z,1.90
2023-04-24T03:00:30.128Z,1.92
2023-04-24T03:07:53.583Z,2.10
2023-04-24T03:10:23.940Z,1.90
2023-04-24T03:12:50.866Z,1.58
2023-04-24T03:15:19.374Z,1.40
2023-04-24T03:17:49.046Z,1.55
2023-04-24T03:20:16.505Z,1.50
2023-04-24T03:22:43.950Z,1.60
2023-04-24T03:25:14.059Z,1.60
2023-04-24T03:27:41.085Z,1.50
2023-04-24T03:30:17.119Z,1.40
2023-04-24T03:32:52.279Z,1.70
2023-04-24T03:35:23.954Z,1.80
2023-04-24T03:37:52.101Z,1.73
2023-04-24T03:40:37.751Z,2.08
2023-04-24T03:43:12.564Z,1.38
2023-04-24T03:45:39.554Z,1.75
2023-04-24T03:48:07.146Z,1.42
2023-04-24T03:50:37.054Z,1.50
2023-04-24T03:53:04.630Z,1.30
2023-04-24T03:55:40.465Z,1.58
2023-04-24T03:58:07.335Z,1.60
2023-04-24T04:00:35.492Z,1.60
2023-04-24T04:03:22.846Z,1.40
2023-04-24T04:05:55.330Z,1.50
2023-04-24T04:08:24.442Z,1.42
2023-04-24T04:10:51.323Z,1.40
2023-04-24T04:13:18.338Z,2.00
2023-04-24T04:15:49.843Z,1.58
2023-04-24T04:18:19.503Z,1.50
2023-04-24T04:20:46.451Z,1.63
2023-04-24T04:23:15.334Z,1.70
2023-04-24T04:25:56.000Z,1.50
2023-04-24T04:28:27.906Z,1.70
2023-04-24T04:30:55.997Z,1.52
2023-04-24T04:33:26.968Z,1.92
2023-04-24T04:35:59.719Z,1.73
2023-04-24T04:38:31.310Z,1.92
2023-04-24T04:41:19.341Z,1.88
2023-04-24T04:43:50.088Z,1.50
2023-04-24T04:46:19.593Z,1.63
2023-04-24T04:49:07.159Z,1.77
2023-04-24T04:51:37.088Z,1.70
2023-04-24T04:54:04.891Z,1.48
2023-04-24T04:56:35.254Z,1.50
2023-04-24T04:59:03.444Z,1.30
2023-04-24T05:03:57.829Z,1.52
2023-04-24T05:06:27.193Z,1.42
2023-04-24T05:08:58.282Z,1.80
2023-04-24T05:11:47.620Z,2.00
2023-04-24T05:14:14.708Z,1.70
2023-04-24T05:16:43.565Z,1.80
2023-04-24T05:19:12.937Z,2.45
2023-04-24T05:21:44.959Z,2.40
2023-04-24T05:24:14.083Z,2.10
2023-04-24T05:26:50.030Z,2.40
2023-04-24T05:29:23.612Z,1.90
2023-04-24T05:31:53.011Z,1.70
2023-04-24T05:34:20.829Z,1.92
2023-04-24T05:36:52.078Z,1.90
2023-04-24T05:39:20.811Z,1.60
2023-04-24T05:41:51.813Z,1.73
2023-04-24T05:44:23.511Z,2.00
2023-04-24T05:46:56.833Z,2.33
2023-04-24T05:49:26.458Z,2.10
2023-04-24T05:51:53.679Z,2.35
2023-04-24T05:54:20.582Z,1.63
2023-04-24T05:56:47.582Z,2.03
2023-04-24T05:59:21.532Z,1.70
2023-04-24T06:01:53.136Z,2.15
2023-04-24T06:04:22.622Z,1.80
2023-04-24T06:06:56.875Z,2.03
2023-04-24T06:09:26.827Z,1.90
2023-04-24T06:11:58.677Z,1.80
2023-04-24T06:14:34.447Z,1.92
2023-04-24T06:17:17.198Z,2.15
2023-04-24T06:19:44.890Z,1.90
2023-04-24T06:22:12.300Z,1.80
2023-04-24T06:24:41.532Z,1.80
2023-04-24T06:27:08.854Z,1.75
2023-04-24T06:32:03.498Z,1.90
2023-04-24T06:34:31.813Z,1.85
2023-04-24T06:36:58.764Z,1.80
2023-04-24T06:39:25.789Z,2.20
2023-04-24T06:41:52.717Z,1.90
2023-04-24T06:44:21.083Z,1.70
2023-04-24T06:46:48.061Z,1.60
2023-04-24T06:49:17.154Z,1.80
2023-04-24T06:51:48.491Z,1.80
2023-04-24T06:54:15.392Z,2.60
2023-04-24T06:56:42.302Z,2.50
2023-04-24T06:59:11.576Z,3.20
2023-04-24T07:01:38.574Z,2.28
2023-04-24T07:04:05.899Z,2.45
2023-04-24T07:06:33.608Z,2.00
2023-04-24T07:09:04.847Z,2.40
2023-04-24T07:11:33.815Z,1.65
2023-04-24T07:14:03.038Z,3.90
2023-04-24T07:16:31.315Z,2.20
2023-04-24T07:18:58.361Z,2.00
2023-04-24T07:21:28.297Z,1.63
2023-04-24T07:23:55.114Z,1.60
2023-04-24T07:26:24.661Z,1.70
2023-04-24T07:28:54.177Z,1.80
2023-04-24T07:31:22.048Z,1.60
2023-04-24T07:33:49.540Z,1.88
2023-04-24T07:36:19.964Z,1.67
2023-04-24T07:38:47.500Z,1.90
2023-04-24T07:41:15.221Z,1.60
2023-04-24T07:43:42.665Z,1.80
2023-04-24T07:48:37.552Z,1.50
2023-04-24T07:51:11.372Z,2.22
2023-04-24T07:53:40.627Z,1.90
2023-04-24T07:56:07.752Z,1.80
2023-04-24T07:58:35.553Z,1.90
2023-04-24T08:01:02.656Z,1.77
2023-04-24T08:03:34.504Z,1.90
2023-04-24T08:06:04.770Z,1.95
2023-04-24T08:08:31.785Z,2.38
2023-04-24T08:10:59.426Z,1.73
2023-04-24T08:13:26.541Z,1.70
2023-04-24T08:16:00.910Z,1.83
2023-04-24T08:18:30.574Z,1.88
2023-04-24T08:21:03.693Z,1.90
2023-04-24T08:23:30.860Z,2.00
2023-04-24T08:25:58.770Z,1.90
2023-04-24T08:28:28.293Z,1.90
2023-04-24T08:30:57.458Z,1.85
2023-04-24T08:33:25.324Z,1.63
2023-04-24T08:35:52.415Z,1.90
2023-04-24T08:38:19.532Z,2.10
2023-04-24T08:40:49.208Z,1.90
2023-04-24T08:43:17.333Z,2.08
2023-04-24T08:45:49.623Z,1.90
2023-04-24T08:48:30.395Z,1.83
2023-04-24T08:50:59.794Z,1.88
2023-04-24T08:53:27.934Z,2.00
2023-04-24T08:55:56.843Z,3.30
2023-04-24T08:58:27.076Z,2.03
2023-04-24T09:00:56.599Z,2.70
2023-04-24T09:03:24.268Z,1.98
2023-04-24T09:05:56.390Z,1.90
2023-04-24T09:08:26.417Z,2.17
2023-04-24T09:10:55.674Z,1.90
2023-04-24T09:13:22.699Z,1.88
2023-04-24T09:15:52.153Z,1.92
2023-04-24T09:18:20.017Z,2.20
2023-04-24T09:21:08.325Z,1.80
2023-04-24T09:23:39.946Z,1.90
2023-04-24T09:26:06.940Z,1.90
2023-04-24T09:28:37.819Z,1.80
2023-04-24T09:31:19.572Z,1.75
2023-04-24T09:33:59.130Z,2.30
2023-04-24T09:36:34.058Z,2.17
2023-04-24T09:39:03.173Z,2.08
2023-04-24T09:41:33.808Z,1.90
2023-04-24T09:44:27.372Z,1.90
2023-04-24T09:46:58.839Z,1.80
2023-04-24T09:49:34.604Z,1.90
2023-04-24T09:52:13.224Z,1.95
2023-04-24T09:54:53.446Z,1.77
2023-04-24T09:57:20.379Z,1.60
2023-04-24T09:59:47.851Z,1.75
2023-04-24T10:02:20.319Z,1.90
2023-04-24T10:05:08.140Z,1.80
2023-04-24T10:07:35.082Z,1.83
2023-04-24T10:10:05.341Z,1.60
2023-04-24T10:12:32.777Z,1.45
2023-04-24T10:15:03.875Z,1.80
2023-04-24T10:17:30.952Z,2.00
2023-04-24T10:19:59.635Z,1.58
2023-04-24T10:22:28.940Z,1.90
2023-04-24T10:24:56.570Z,1.50
2023-04-24T10:27:25.082Z,1.67
2023-04-24T10:29:54.923Z,1.70
2023-04-24T10:34:49.360Z,1.80
2023-04-24T10:37:16.990Z,1.58
2023-04-24T10:39:44.095Z,2.10
2023-04-24T10:42:17.843Z,1.77
2023-04-24T10:44:48.483Z,1.63
2023-04-24T10:47:15.596Z,1.50
2023-04-24T10:49:42.857Z,1.50
2023-04-24T10:52:10.214Z,1.50
2023-04-24T10:54:46.746Z,1.50
2023-04-24T10:57:25.782Z,1.90
2023-04-24T11:00:15.642Z,2.35
2023-04-24T11:02:50.569Z,1.70
2023-04-24T11:05:18.901Z,1.45
2023-04-24T11:08:15.120Z,1.55
2023-04-24T11:10:46.734Z,1.77
2023-04-24T11:13:23.225Z,1.75
2023-04-24T11:16:36.316Z,1.60
2023-04-24T11:19:19.950Z,1.52
2023-04-24T11:21:55.559Z,1.75
2023-04-24T11:24:30.088Z,1.70
2023-04-24T11:26:58.569Z,1.50
2023-04-24T11:29:46.091Z,1.60
2023-04-24T11:32:39.736Z,2.08
2023-04-24T11:35:25.899Z,1.40
2023-04-24T11:38:18.799Z,1.50
2023-04-24T11:40:41.639Z,1.63
2023-04-24T11:43:10.642Z,1.50
2023-04-24T11:45:50.009Z,1.48
2023-04-24T11:48:23.208Z,1.40
2023-04-24T11:50:51.527Z,1.70
2023-04-24T11:53:22.516Z,2.50
2023-04-24T11:55:49.541Z,2.83
2023-04-24T11:58:21.373Z,1.40
2023-04-24T12:00:58.097Z,1.50
2023-04-24T12:03:25.165Z,2.30
2023-04-24T12:05:52.433Z,2.33
2023-04-24T12:08:33.635Z,1.90
2023-04-24T12:11:02.483Z,1.67
2023-04-24T12:13:29.926Z,1.50
2023-04-24T12:15:58.370Z,1.33
2023-04-24T12:18:25.479Z,1.50
2023-04-24T12:21:01.339Z,1.50
2023-04-24T12:23:37.101Z,1.27
2023-04-24T12:26:07.013Z,1.45
2023-04-24T12:28:38.754Z,1.50
2023-04-24T12:31:07.163Z,1.38
2023-04-24T12:33:37.347Z,1.85
2023-04-24T12:36:04.855Z,1.30
2023-04-24T12:41:07.185Z,1.40
2023-04-24T12:43:34.570Z,1.65
2023-04-24T12:48:32.557Z,1.80
2023-04-24T12:51:02.438Z,1.70
2023-04-24T12:53:32.711Z,1.67
2023-04-24T12:56:02.667Z,1.70
2023-04-24T12:58:29.920Z,1.55
2023-04-24T13:00:59.693Z,1.60
2023-04-24T13:03:26.904Z,2.17
2023-04-24T13:05:58.835Z,3.28
2023-04-24T13:08:40.673Z,2.40
2023-04-24T13:11:10.009Z,2.03
2023-04-24T13:13:41.872Z,1.80
2023-04-24T13:16:09.094Z,1.80
2023-04-24T13:18:36.418Z,2.05
2023-04-24T13:23:35.802Z,1.83
2023-04-24T13:26:03.365Z,1.90
2023-04-24T13:28:31.339Z,2.90
2023-04-24T13:31:00.733Z,2.20
2023-04-24T13:33:28.053Z,2.30
2023-04-24T13:38:23.168Z,3.10
2023-04-24T13:40:50.095Z,3.88
2023-04-24T13:43:16.956Z,2.40
2023-04-24T13:45:44.176Z,2.80
2023-04-24T13:48:16.610Z,2.30
2023-04-24T13:50:45.928Z,2.50
2023-04-24T13:53:13.298Z,3.10
2023-04-24T14:00:35.651Z,1.80
2023-04-24T14:03:04.964Z,1.95
2023-04-24T14:05:34.378Z,2.50
2023-04-24T14:08:03.571Z,1.75
2023-04-24T14:10:31.442Z,1.90
2023-04-24T14:13:01.409Z,1.73
2023-04-24T14:15:31.068Z,1.70
2023-04-24T14:18:00.646Z,2.08
2023-04-24T14:20:27.595Z,1.60
2023-04-24T14:22:59.376Z,1.90
2023-04-24T14:25:29.447Z,1.60
2023-04-24T14:27:56.331Z,2.25
2023-04-24T14:30:26.087Z,2.38
2023-04-24T14:32:53.205Z,2.28
2023-04-24T14:35:20.375Z,2.60
2023-04-24T14:37:47.402Z,3.10
2023-04-24T14:40:29.895Z,2.72
2023-04-24T14:43:01.830Z,3.83
2023-04-24T14:45:31.457Z,2.70
2023-04-24T14:48:01.182Z,1.98
2023-04-24T14:50:29.286Z,1.70
2023-04-24T14:53:00.006Z,1.70
2023-04-24T14:55:27.338Z,1.95
2023-04-24T15:02:48.903Z,2.13
2023-04-24T15:05:16.489Z,1.90
2023-04-24T15:07:43.637Z,1.80
2023-04-24T15:10:11.246Z,1.80
2023-04-24T15:12:38.222Z,1.80
2023-04-24T15:15:05.980Z,2.25
2023-04-24T15:17:37.884Z,2.00
2023-04-24T15:20:07.378Z,2.13
2023-04-24T15:22:34.566Z,2.00
2023-04-24T15:25:02.216Z,1.60
2023-04-24T15:27:41.841Z,1.80
2023-04-24T15:30:12.027Z,1.90
2023-04-24T15:32:41.401Z,1.70
2023-04-24T15:35:10.391Z,2.00
2023-04-24T15:37:39.272Z,1.80
2023-04-24T15:40:08.297Z,1.80
2023-04-24T15:42:36.158Z,2.33
2023-04-24T15:45:04.427Z,1.80
2023-04-24T15:47:32.805Z,2.60
2023-04-24T15:50:03.410Z,2.80
2023-04-24T15:52:32.881Z,1.83
2023-04-24T15:54:59.766Z,1.88
2023-04-24T15:57:26.728Z,2.05
2023-04-24T15:59:56.243Z,2.50
2023-04-24T16:02:25.488Z,2.60
2023-04-24T16:04:55.179Z,1.80
2023-04-24T16:07:22.336Z,2.25
2023-04-24T16:09:49.241Z,2.70
2023-04-24T16:12:16.251Z,3.55
2023-04-24T16:14:43.169Z,2.60
2023-04-24T16:17:12.087Z,2.40
2023-04-24T16:19:39.486Z,3.72
2023-04-24T16:25:01.459Z,2.60
2023-04-24T16:27:28.513Z,1.90
2023-04-24T16:29:57.955Z,1.58
2023-04-24T16:32:25.065Z,1.92
2023-04-24T16:34:52.456Z,1.90
2023-04-24T16:39:47.439Z,1.55
2023-04-24T16:42:15.649Z,1.88
2023-04-24T16:44:43.565Z,1.80
2023-04-24T16:47:14.721Z,1.60
2023-04-24T16:49:42.164Z,1.92
2023-04-24T16:52:10.721Z,1.83
2023-04-24T16:54:42.400Z,1.90
2023-04-24T16:57:09.355Z,1.80
2023-04-24T16:59:39.023Z,1.70
2023-04-24T17:02:05.987Z,1.83
2023-04-24T17:04:35.902Z,1.80
2023-04-24T17:07:05.474Z,1.60
2023-04-24T17:09:32.574Z,1.80
2023-04-24T17:11:59.557Z,1.80
2023-04-24T17:14:26.633Z,2.50
2023-04-24T17:16:53.724Z,1.70
2023-04-24T17:19:21.358Z,2.22
2023-04-24T17:21:50.664Z,1.80
2023-04-24T17:24:19.852Z,2.13
2023-04-24T17:26:46.773Z,2.58
2023-04-24T17:29:15.386Z,2.20
2023-04-24T17:31:42.572Z,2.50
2023-04-24T17:34:10.305Z,2.47
2023-04-24T17:36:39.975Z,2.40
2023-04-24T17:39:07.198Z,2.67
2023-04-24T17:41:34.170Z,2.17
2023-04-24T17:44:03.197Z,1.90
2023-04-24T17:46:35.760Z,2.50
2023-04-24T17:49:03.191Z,2.58
2023-04-24T17:51:33.065Z,2.50
2023-04-24T17:54:02.233Z,1.80
2023-04-24T17:56:29.164Z,1.83
2023-04-24T17:58:59.327Z,1.90
2023-04-24T18:01:29.081Z,2.15
2023-04-24T18:03:56.746Z,2.15
2023-04-24T18:06:26.654Z,3.10
2023-04-24T18:08:55.851Z,2.60
2023-04-24T18:11:25.879Z,2.40
2023-04-24T18:13:52.921Z,3.17
2023-04-24T18:16:19.971Z,2.33
2023-04-24T18:18:49.715Z,2.28
2023-04-24T18:21:21.300Z,2.20
2023-04-24T18:23:51.007Z,1.83
2023-04-24T18:26:18.722Z,1.88
2023-04-24T18:28:49.076Z,2.40
2023-04-24T18:31:19.329Z,2.88
2023-04-24T18:33:46.318Z,2.30
2023-04-24T18:36:13.271Z,2.20
2023-04-24T18:38:42.691Z,2.25
2023-04-24T18:41:09.826Z,2.10
2023-04-24T18:43:36.784Z,2.63
2023-04-24T18:46:03.730Z,2.05
2023-04-24T18:48:31.235Z,2.38
2023-04-24T18:51:00.829Z,2.05
2023-04-24T18:53:27.819Z,2.00
2023-04-24T18:55:59.348Z,2.10
2023-04-24T18:58:26.329Z,2.30
2023-04-24T19:00:56.129Z,2.38
2023-04-24T19:03:23.560Z,2.58
2023-04-24T19:05:50.599Z,2.30
2023-04-24T19:08:17.557Z,2.47
2023-04-24T19:10:46.967Z,2.30
2023-04-24T19:13:14.011Z,2.78
2023-04-24T19:15:40.946Z,2.35
2023-04-24T19:18:07.948Z,2.65
2023-04-24T19:20:39.422Z,2.65
2023-04-24T19:23:07.242Z,2.53
2023-04-24T19:25:34.323Z,2.78
2023-04-24T19:28:01.273Z,2.50
2023-04-24T19:30:35.280Z,2.50
2023-04-24T19:33:04.765Z,2.55
2023-04-24T19:35:31.829Z,3.20
2023-04-24T19:37:58.861Z,3.80
2023-04-24T19:40:28.578Z,2.55
2023-04-24T19:42:57.917Z,2.90
2023-04-24T19:45:24.955Z,3.10
2023-04-24T19:47:56.514Z,4.43
2023-04-24T19:50:26.579Z,6.68
2023-04-24T19:52:53.693Z,4.47
2023-04-24T19:55:20.874Z,3.92
2023-04-24T19:57:47.823Z,2.80
2023-04-24T20:00:17.548Z,3.25
2023-04-24T20:02:44.677Z,3.53
2023-04-24T20:05:16.595Z,2.85
2023-04-24T20:07:44.166Z,3.40
2023-04-24T20:10:13.339Z,3.55
2023-04-24T20:12:41.218Z,4.10
2023-04-24T20:15:08.822Z,3.70
2023-04-24T20:17:35.864Z,3.65
2023-04-24T20:20:08.122Z,2.97
2023-04-24T20:22:38.832Z,3.10
2023-04-24T20:25:13.068Z,9.73
2023-04-24T20:27:43.755Z,9.75
2023-04-24T20:30:13.384Z,4.47
2023-04-24T20:32:46.284Z,3.90
2023-04-24T20:35:13.266Z,3.50
2023-04-24T20:37:42.424Z,3.53
2023-04-24T20:40:10.074Z,3.20
2023-04-24T20:42:39.584Z,3.30
2023-04-24T20:45:08.198Z,3.42
2023-04-24T20:47:36.761Z,3.10
2023-04-24T20:50:06.267Z,3.55
2023-04-24T20:52:35.796Z,3.20
2023-04-24T20:57:33.086Z,3.40
2023-04-24T21:00:00.065Z,4.35
2023-04-24T21:02:27.161Z,3.30
2023-04-24T21:04:58.680Z,3.33
2023-04-24T21:07:28.049Z,3.78
2023-04-24T21:09:55.108Z,3.90
2023-04-24T21:12:26.670Z,3.70
2023-04-24T21:14:53.710Z,3.25
2023-04-24T21:17:20.682Z,3.28
2023-04-24T21:19:50.659Z,3.53
2023-04-24T21:22:17.707Z,3.35
2023-04-24T21:24:44.663Z,3.42
2023-04-24T21:27:16.392Z,3.15
2023-04-24T21:29:43.656Z,3.20
2023-04-24T21:34:42.046Z,3.50
2023-04-24T21:37:13.258Z,3.45
2023-04-24T21:39:44.921Z,3.65
2023-04-24T21:42:14.365Z,3.70
2023-04-24T21:44:41.706Z,3.28
2023-04-24T21:47:14.330Z,3.58
2023-04-24T21:49:45.712Z,3.30
2023-04-24T21:52:12.612Z,3.30
2023-04-24T21:54:39.557Z,3.50
2023-04-24T21:57:11.757Z,3.15
2023-04-24T21:59:39.999Z,3.58
2023-04-24T22:02:07.095Z,3.13
2023-04-24T22:04:36.770Z,3.67
2023-04-24T22:07:04.062Z,3.33
2023-04-24T22:09:31.071Z,3.13
2023-04-24T22:11:58.221Z,3.45
2023-04-24T22:14:25.368Z,3.65
2023-04-24T22:16:57.083Z,3.80
2023-04-24T22:19:26.249Z,3.70
2023-04-24T22:21:53.317Z,3.50
2023-04-24T22:24:20.427Z,3.13
2023-04-24T22:26:47.432Z,3.60
2023-04-24T22:29:14.403Z,3.60
2023-04-24T22:31:42.337Z,3.47
2023-04-24T22:34:11.973Z,3.35
2023-04-24T22:36:38.890Z,3.40
2023-04-24T22:39:05.881Z,3.67
2023-04-24T22:41:32.916Z,3.50
2023-04-24T22:44:05.166Z,3.55
2023-04-24T22:46:32.221Z,3.60
2023-04-24T22:49:01.602Z,3.70
2023-04-24T22:51:29.753Z,3.60
2023-04-24T22:54:05.880Z,3.33
2023-04-24T22:56:34.290Z,3.80
2023-04-24T22:59:01.552Z,3.90
2023-04-24T23:04:01.708Z,3.42
2023-04-24T23:06:28.841Z,3.95
2023-04-24T23:08:55.883Z,3.42
2023-04-24T23:11:25.039Z,3.40
2023-04-24T23:13:52.081Z,3.75
2023-04-24T23:16:19.237Z,3.60
2023-04-24T23:18:46.875Z,3.75
2023-04-24T23:21:13.772Z,3.72
2023-04-24T23:23:43.099Z,3.60
2023-04-24T23:26:13.256Z,3.75
2023-04-24T23:28:40.904Z,3.50
2023-04-24T23:31:09.952Z,3.53
2023-04-24T23:33:37.049Z,3.90
2023-04-24T23:36:04.183Z,3.50
2023-04-24T23:38:39.926Z,4.00
2023-04-24T23:41:16.373Z,4.53
2023-04-24T23:43:45.895Z,3.88
2023-04-24T23:48:45.592Z,3.20
2023-04-24T23:51:15.388Z,3.70
2023-04-24T23:53:42.327Z,3.92
2023-04-24T23:56:11.338Z,3.78
2023-04-24T23:58:38.408Z,3.70
